sensor_id;sensor_type;location;lat;lon;timestamp;pressure;altitude;pressure_sealevel;temperature;humidity
24892;BME280;12954;50.688;10.908;2023-03-01T00:01:36;96662.72;;;-3.88;55.72
24892;BME280;12954;50.688;10.908;2023-03-01T00:04:04;96638.81;;;-4.03;56.17
24892;BME280;12954;50.688;10.908;2023-03-01T00:06:32;96654.47;;;-3.93;55.98
24892;BME280;12954;50.688;10.908;2023-03-01T00:09:02;96664.03;;;-3.84;55.58
24892;BME280;12954;50.688;10.908;2023-03-01T00:11:32;96638.50;;;-4.00;55.55
24892;BME280;12954;50.688;10.908;2023-03-01T00:14:02;96647.91;;;-3.89;55.56
24892;BME280;12954;50.688;10.908;2023-03-01T00:16:35;96531.59;;;-4.59;56.00
24892;BME280;12954;50.688;10.908;2023-03-01T00:19:05;96618.56;;;-4.18;55.91
24892;BME280;12954;50.688;10.908;2023-03-01T00:21:34;96654.84;;;-3.80;56.21
24892;BME280;12954;50.688;10.908;2023-03-01T00:24:05;96651.19;;;-3.79;55.70
24892;BME280;12954;50.688;10.908;2023-03-01T00:26:33;96647.56;;;-3.78;56.00
24892;BME280;12954;50.688;10.908;2023-03-01T00:29:04;96651.69;;;-3.83;55.92
24892;BME280;12954;50.688;10.908;2023-03-01T00:31:33;96651.53;;;-3.82;56.14
24892;BME280;12954;50.688;10.908;2023-03-01T00:34:04;96646.09;;;-3.80;56.55
24892;BME280;12954;50.688;10.908;2023-03-01T00:36:34;96649.56;;;-3.80;55.93
24892;BME280;12954;50.688;10.908;2023-03-01T00:39:07;96650.53;;;-3.81;56.08
24892;BME280;12954;50.688;10.908;2023-03-01T00:41:37;96653.00;;;-3.87;56.02
24892;BME280;12954;50.688;10.908;2023-03-01T00:44:06;96652.81;;;-3.94;56.79
24892;BME280;12954;50.688;10.908;2023-03-01T00:46:35;96660.44;;;-3.83;56.64
24892;BME280;12954;50.688;10.908;2023-03-01T00:49:04;96679.53;;;-3.81;56.05
24892;BME280;12954;50.688;10.908;2023-03-01T00:51:32;96653.19;;;-3.89;56.37
24892;BME280;12954;50.688;10.908;2023-03-01T00:54:01;96668.34;;;-3.75;56.30
24892;BME280;12954;50.688;10.908;2023-03-01T00:56:31;96666.69;;;-3.76;56.43
24892;BME280;12954;50.688;10.908;2023-03-01T00:59:00;96664.72;;;-3.74;56.51
24892;BME280;12954;50.688;10.908;2023-03-01T01:01:30;96664.72;;;-3.74;56.16
24892;BME280;12954;50.688;10.908;2023-03-01T01:04:00;96661.09;;;-3.73;56.80
24892;BME280;12954;50.688;10.908;2023-03-01T01:06:30;96639.03;;;-3.80;56.64
24892;BME280;12954;50.688;10.908;2023-03-01T01:08:59;96627.16;;;-3.84;56.60
24892;BME280;12954;50.688;10.908;2023-03-01T01:11:30;96643.44;;;-3.64;56.55
24892;BME280;12954;50.688;10.908;2023-03-01T01:13:59;96618.59;;;-3.86;56.14
24892;BME280;12954;50.688;10.908;2023-03-01T01:16:28;96628.63;;;-3.73;56.67
24892;BME280;12954;50.688;10.908;2023-03-01T01:18:58;96643.94;;;-3.61;56.64
24892;BME280;12954;50.688;10.908;2023-03-01T01:21:27;96637.38;;;-3.57;56.78
24892;BME280;12954;50.688;10.908;2023-03-01T01:23:56;96592.56;;;-3.89;56.85
24892;BME280;12954;50.688;10.908;2023-03-01T01:26:26;96631.06;;;-3.56;56.62
24892;BME280;12954;50.688;10.908;2023-03-01T01:28:58;96629.78;;;-3.60;57.04
24892;BME280;12954;50.688;10.908;2023-03-01T01:31:27;96532.09;;;-4.23;56.40
24892;BME280;12954;50.688;10.908;2023-03-01T01:33:57;96577.41;;;-3.87;56.78
24892;BME280;12954;50.688;10.908;2023-03-01T01:36:28;96620.53;;;-3.56;56.17
24892;BME280;12954;50.688;10.908;2023-03-01T01:38:57;96616.91;;;-3.55;56.79
24892;BME280;12954;50.688;10.908;2023-03-01T01:41:28;96625.13;;;-3.50;56.42
24892;BME280;12954;50.688;10.908;2023-03-01T01:44:25;96624.69;;;-3.53;56.59
24892;BME280;12954;50.688;10.908;2023-03-01T01:46:55;96526.69;;;-4.21;56.80
24892;BME280;12954;50.688;10.908;2023-03-01T01:49:30;96617.44;;;-3.59;56.45
24892;BME280;12954;50.688;10.908;2023-03-01T01:52:06;96627.78;;;-3.58;56.46
24892;BME280;12954;50.688;10.908;2023-03-01T01:54:39;96609.97;;;-3.56;57.02
24892;BME280;12954;50.688;10.908;2023-03-01T01:57:12;96537.38;;;-3.98;56.56
24892;BME280;12954;50.688;10.908;2023-03-01T01:59:48;96605.06;;;-3.51;56.42
24892;BME280;12954;50.688;10.908;2023-03-01T02:02:19;96595.47;;;-3.52;56.27
24892;BME280;12954;50.688;10.908;2023-03-01T02:04:49;96561.22;;;-3.76;56.51
24892;BME280;12954;50.688;10.908;2023-03-01T02:07:22;96545.44;;;-3.84;56.43
24892;BME280;12954;50.688;10.908;2023-03-01T02:09:52;96577.38;;;-3.63;56.19
24892;BME280;12954;50.688;10.908;2023-03-01T02:12:23;96567.81;;;-3.64;56.44
24892;BME280;12954;50.688;10.908;2023-03-01T02:14:53;96560.56;;;-3.70;56.76
24892;BME280;12954;50.688;10.908;2023-03-01T02:17:22;96551.53;;;-3.75;56.74
24892;BME280;12954;50.688;10.908;2023-03-01T02:19:59;96554.66;;;-3.80;56.09
24892;BME280;12954;50.688;10.908;2023-03-01T02:22:35;96555.34;;;-3.86;56.42
24892;BME280;12954;50.688;10.908;2023-03-01T02:25:19;96549.72;;;-3.83;56.31
24892;BME280;12954;50.688;10.908;2023-03-01T02:27:53;96546.09;;;-3.82;56.76
24892;BME280;12954;50.688;10.908;2023-03-01T02:30:25;96535.91;;;-4.01;56.21
24892;BME280;12954;50.688;10.908;2023-03-01T02:32:56;96534.25;;;-4.02;56.07
24892;BME280;12954;50.688;10.908;2023-03-01T02:35:32;96550.03;;;-3.78;56.31
24892;BME280;12954;50.688;10.908;2023-03-01T02:38:02;96558.94;;;-3.79;55.96
24892;BME280;12954;50.688;10.908;2023-03-01T02:40:34;96566.00;;;-3.79;55.96
24892;BME280;12954;50.688;10.908;2023-03-01T02:43:08;96532.91;;;-3.90;55.98
24892;BME280;12954;50.688;10.908;2023-03-01T02:45:47;96527.97;;;-3.93;55.75
24892;BME280;12954;50.688;10.908;2023-03-01T02:48:16;96537.19;;;-3.97;55.95
24892;BME280;12954;50.688;10.908;2023-03-01T02:51:01;96447.84;;;-4.47;55.59
24892;BME280;12954;50.688;10.908;2023-03-01T02:53:39;96553.34;;;-3.92;55.70
24892;BME280;12954;50.688;10.908;2023-03-01T02:56:10;96559.09;;;-3.96;55.94
24892;BME280;12954;50.688;10.908;2023-03-01T02:58:40;96562.91;;;-4.07;56.35
24892;BME280;12954;50.688;10.908;2023-03-01T03:01:16;96565.88;;;-4.10;56.36
24892;BME280;12954;50.688;10.908;2023-03-01T03:03:44;96559.28;;;-4.14;56.32
24892;BME280;12954;50.688;10.908;2023-03-01T03:06:13;96560.63;;;-4.18;56.35
24892;BME280;12954;50.688;10.908;2023-03-01T03:08:41;96577.41;;;-4.19;56.06
24892;BME280;12954;50.688;10.908;2023-03-01T03:11:10;96553.00;;;-4.29;55.85
24892;BME280;12954;50.688;10.908;2023-03-01T03:13:39;96566.22;;;-4.21;56.06
24892;BME280;12954;50.688;10.908;2023-03-01T03:16:16;96518.78;;;-4.53;55.83
24892;BME280;12954;50.688;10.908;2023-03-01T03:18:45;96558.28;;;-4.37;56.80
24892;BME280;12954;50.688;10.908;2023-03-01T03:21:13;96544.78;;;-4.50;56.42
24892;BME280;12954;50.688;10.908;2023-03-01T03:23:42;96559.56;;;-4.49;56.62
24892;BME280;12954;50.688;10.908;2023-03-01T03:26:10;96565.16;;;-4.61;56.81
24892;BME280;12954;50.688;10.908;2023-03-01T03:28:42;96559.25;;;-4.63;56.62
24892;BME280;12954;50.688;10.908;2023-03-01T03:31:10;96552.97;;;-4.62;56.44
24892;BME280;12954;50.688;10.908;2023-03-01T03:33:40;96513.59;;;-4.95;56.77
24892;BME280;12954;50.688;10.908;2023-03-01T03:36:08;96552.97;;;-4.70;56.73
24892;BME280;12954;50.688;10.908;2023-03-01T03:38:40;96563.16;;;-4.75;56.48
24892;BME280;12954;50.688;10.908;2023-03-01T03:41:08;96548.00;;;-4.89;56.50
24892;BME280;12954;50.688;10.908;2023-03-01T03:43:38;96551.47;;;-4.80;56.51
24892;BME280;12954;50.688;10.908;2023-03-01T03:46:07;96551.28;;;-4.87;56.50
24892;BME280;12954;50.688;10.908;2023-03-01T03:48:37;96558.16;;;-4.94;56.51
24892;BME280;12954;50.688;10.908;2023-03-01T03:51:09;96550.25;;;-5.02;56.91
24892;BME280;12954;50.688;10.908;2023-03-01T03:53:38;96562.53;;;-5.10;57.13
24892;BME280;12954;50.688;10.908;2023-03-01T03:56:07;96551.19;;;-5.11;57.11
24892;BME280;12954;50.688;10.908;2023-03-01T03:58:35;96543.63;;;-5.14;57.20
24892;BME280;12954;50.688;10.908;2023-03-01T04:01:04;96529.47;;;-5.21;57.26
24892;BME280;12954;50.688;10.908;2023-03-01T04:03:32;96520.22;;;-5.33;56.83
24892;BME280;12954;50.688;10.908;2023-03-01T04:06:02;96542.00;;;-5.07;56.85
24892;BME280;12954;50.688;10.908;2023-03-01T04:08:32;96548.94;;;-5.06;57.02
24892;BME280;12954;50.688;10.908;2023-03-01T04:11:02;96542.72;;;-4.97;56.51
24892;BME280;12954;50.688;10.908;2023-03-01T04:13:53;96546.31;;;-4.98;56.84
24892;BME280;12954;50.688;10.908;2023-03-01T04:16:22;96520.25;;;-5.17;56.60
24892;BME280;12954;50.688;10.908;2023-03-01T04:18:51;96481.56;;;-5.41;56.76
24892;BME280;12954;50.688;10.908;2023-03-01T04:21:20;96543.34;;;-5.03;56.74
24892;BME280;12954;50.688;10.908;2023-03-01T04:23:51;96541.38;;;-5.01;56.89
24892;BME280;12954;50.688;10.908;2023-03-01T04:26:19;96534.63;;;-5.03;56.93
24892;BME280;12954;50.688;10.908;2023-03-01T04:28:48;96534.44;;;-5.02;56.61
24892;BME280;12954;50.688;10.908;2023-03-01T04:31:18;96535.28;;;-5.01;56.82
24892;BME280;12954;50.688;10.908;2023-03-01T04:33:49;96517.69;;;-5.09;56.66
24892;BME280;12954;50.688;10.908;2023-03-01T04:36:21;96533.47;;;-5.01;56.59
24892;BME280;12954;50.688;10.908;2023-03-01T04:38:51;96527.56;;;-5.03;56.62
24892;BME280;12954;50.688;10.908;2023-03-01T04:41:22;96479.09;;;-5.42;56.69
24892;BME280;12954;50.688;10.908;2023-03-01T04:43:51;96489.94;;;-5.37;57.00
24892;BME280;12954;50.688;10.908;2023-03-01T04:46:21;96490.31;;;-5.32;57.15
24892;BME280;12954;50.688;10.908;2023-03-01T04:48:55;96522.56;;;-5.14;56.85
24892;BME280;12954;50.688;10.908;2023-03-01T04:51:23;96525.53;;;-5.17;57.23
24892;BME280;12954;50.688;10.908;2023-03-01T04:53:53;96514.19;;;-5.18;57.05
24892;BME280;12954;50.688;10.908;2023-03-01T04:56:22;96513.00;;;-5.23;57.09
24892;BME280;12954;50.688;10.908;2023-03-01T04:58:53;96520.25;;;-5.17;56.76
24892;BME280;12954;50.688;10.908;2023-03-01T05:01:21;96519.16;;;-5.15;56.80
24892;BME280;12954;50.688;10.908;2023-03-01T05:03:51;96519.94;;;-5.14;56.90
24892;BME280;12954;50.688;10.908;2023-03-01T05:06:20;96513.38;;;-5.18;57.02
24892;BME280;12954;50.688;10.908;2023-03-01T05:08:49;96509.75;;;-5.17;56.94
24892;BME280;12954;50.688;10.908;2023-03-01T05:11:19;96501.72;;;-5.16;57.40
24892;BME280;12954;50.688;10.908;2023-03-01T05:13:47;96510.25;;;-5.14;57.26
24892;BME280;12954;50.688;10.908;2023-03-01T05:16:16;96505.50;;;-5.18;56.96
24892;BME280;12954;50.688;10.908;2023-03-01T05:18:46;96506.97;;;-5.16;56.92
24892;BME280;12954;50.688;10.908;2023-03-01T05:21:17;96508.78;;;-5.16;57.02
24892;BME280;12954;50.688;10.908;2023-03-01T05:23:45;96509.44;;;-5.14;57.23
24892;BME280;12954;50.688;10.908;2023-03-01T05:26:14;96457.88;;;-5.49;56.97
24892;BME280;12954;50.688;10.908;2023-03-01T05:29:01;96465.63;;;-5.39;57.20
24892;BME280;12954;50.688;10.908;2023-03-01T05:31:29;96499.72;;;-5.14;57.44
24892;BME280;12954;50.688;10.908;2023-03-01T05:33:58;96493.00;;;-5.08;57.27
24892;BME280;12954;50.688;10.908;2023-03-01T05:36:26;96489.41;;;-5.07;56.74
24892;BME280;12954;50.688;10.908;2023-03-01T05:38:55;96487.44;;;-5.05;57.04
24892;BME280;12954;50.688;10.908;2023-03-01T05:41:23;96453.50;;;-5.32;56.86
24892;BME280;12954;50.688;10.908;2023-03-01T05:43:52;96489.72;;;-5.10;57.11
24892;BME280;12954;50.688;10.908;2023-03-01T05:46:22;96496.97;;;-5.12;56.83
24892;BME280;12954;50.688;10.908;2023-03-01T05:48:51;96480.00;;;-5.18;57.14
24892;BME280;12954;50.688;10.908;2023-03-01T05:51:19;96498.91;;;-5.14;57.11
24892;BME280;12954;50.688;10.908;2023-03-01T05:53:48;96487.22;;;-5.12;57.20
24892;BME280;12954;50.688;10.908;2023-03-01T05:56:17;96493.97;;;-5.17;57.16
24892;BME280;12954;50.688;10.908;2023-03-01T05:58:47;96491.81;;;-5.22;57.11
24892;BME280;12954;50.688;10.908;2023-03-01T06:01:16;96493.09;;;-5.34;57.64
24892;BME280;12954;50.688;10.908;2023-03-01T06:03:46;96468.19;;;-5.55;57.60
24892;BME280;12954;50.688;10.908;2023-03-01T06:06:15;96499.50;;;-5.36;57.86
24892;BME280;12954;50.688;10.908;2023-03-01T06:08:43;96497.38;;;-5.33;57.49
24892;BME280;12954;50.688;10.908;2023-03-01T06:11:12;96502.47;;;-5.31;57.58
24892;BME280;12954;50.688;10.908;2023-03-01T06:13:41;96497.41;;;-5.25;57.57
24892;BME280;12954;50.688;10.908;2023-03-01T06:16:10;96414.06;;;-5.82;57.33
24892;BME280;12954;50.688;10.908;2023-03-01T06:18:39;96495.91;;;-5.27;57.60
24892;BME280;12954;50.688;10.908;2023-03-01T06:21:10;96506.31;;;-5.18;57.11
24892;BME280;12954;50.688;10.908;2023-03-01T06:23:38;96513.38;;;-5.18;57.15
24892;BME280;12954;50.688;10.908;2023-03-01T06:26:07;96496.06;;;-5.29;57.38
24892;BME280;12954;50.688;10.908;2023-03-01T06:28:36;96481.09;;;-5.36;57.43
24892;BME280;12954;50.688;10.908;2023-03-01T06:31:04;96498.59;;;-5.11;57.46
24892;BME280;12954;50.688;10.908;2023-03-01T06:33:35;96506.78;;;-5.14;57.81
24892;BME280;12954;50.688;10.908;2023-03-01T06:36:04;96494.47;;;-5.14;57.81
24892;BME280;12954;50.688;10.908;2023-03-01T06:38:34;96485.94;;;-5.16;57.93
24892;BME280;12954;50.688;10.908;2023-03-01T06:41:03;96499.28;;;-5.01;57.97
24892;BME280;12954;50.688;10.908;2023-03-01T06:43:31;96504.56;;;-4.93;57.87
24892;BME280;12954;50.688;10.908;2023-03-01T06:45:59;96513.47;;;-4.86;57.62
24892;BME280;12954;50.688;10.908;2023-03-01T06:48:28;96503.28;;;-4.81;57.57
24892;BME280;12954;50.688;10.908;2023-03-01T06:50:58;96437.75;;;-5.16;57.88
24892;BME280;12954;50.688;10.908;2023-03-01T06:53:27;96508.22;;;-4.70;57.97
24892;BME280;12954;50.688;10.908;2023-03-01T06:55:58;96515.47;;;-4.64;58.02
24892;BME280;12954;50.688;10.908;2023-03-01T06:58:27;96517.13;;;-4.54;57.65
24892;BME280;12954;50.688;10.908;2023-03-01T07:00:55;96514.00;;;-4.50;57.56
24892;BME280;12954;50.688;10.908;2023-03-01T07:03:23;96505.94;;;-4.48;57.86
24892;BME280;12954;50.688;10.908;2023-03-01T07:05:52;96505.28;;;-4.42;57.55
24892;BME280;12954;50.688;10.908;2023-03-01T07:08:20;96518.13;;;-4.31;57.80
24892;BME280;12954;50.688;10.908;2023-03-01T07:10:54;96523.56;;;-4.25;57.87
24892;BME280;12954;50.688;10.908;2023-03-01T07:13:24;96522.06;;;-4.19;57.98
24892;BME280;12954;50.688;10.908;2023-03-01T07:15:53;96489.16;;;-4.31;57.39
24892;BME280;12954;50.688;10.908;2023-03-01T07:18:22;96505.94;;;-4.08;57.49
24892;BME280;12954;50.688;10.908;2023-03-01T07:20:50;96512.03;;;-3.91;57.55
24892;BME280;12954;50.688;10.908;2023-03-01T07:23:18;96488.16;;;-3.98;57.55
24892;BME280;12954;50.688;10.908;2023-03-01T07:25:51;96514.78;;;-3.77;57.50
24892;BME280;12954;50.688;10.908;2023-03-01T07:28:24;96504.06;;;-3.75;57.96
24892;BME280;12954;50.688;10.908;2023-03-01T07:30:53;96501.75;;;-3.70;57.47
24892;BME280;12954;50.688;10.908;2023-03-01T07:33:21;96506.53;;;-3.66;57.80
24892;BME280;12954;50.688;10.908;2023-03-01T07:35:56;96495.94;;;-3.58;57.42
24892;BME280;12954;50.688;10.908;2023-03-01T07:38:24;96462.69;;;-3.67;57.25
24892;BME280;12954;50.688;10.908;2023-03-01T07:40:53;96497.88;;;-3.44;57.53
24892;BME280;12954;50.688;10.908;2023-03-01T07:43:25;96495.69;;;-3.32;57.27
24892;BME280;12954;50.688;10.908;2023-03-01T07:45:54;96500.13;;;-3.32;57.30
24892;BME280;12954;50.688;10.908;2023-03-01T07:48:22;96499.34;;;-3.33;57.28
24892;BME280;12954;50.688;10.908;2023-03-01T07:50:50;96509.66;;;-3.23;57.13
24892;BME280;12954;50.688;10.908;2023-03-01T07:53:20;96506.34;;;-3.17;56.74
24892;BME280;12954;50.688;10.908;2023-03-01T07:55:48;96507.00;;;-3.15;57.04
24892;BME280;12954;50.688;10.908;2023-03-01T07:58:16;96503.84;;;-3.11;57.40
24892;BME280;12954;50.688;10.908;2023-03-01T08:00:46;96456.47;;;-3.35;57.01
24892;BME280;12954;50.688;10.908;2023-03-01T08:03:15;96504.28;;;-2.99;56.77
24892;BME280;12954;50.688;10.908;2023-03-01T08:05:42;96457.25;;;-3.26;56.68
24892;BME280;12954;50.688;10.908;2023-03-01T08:08:10;96491.28;;;-3.01;56.83
24892;BME280;12954;50.688;10.908;2023-03-01T08:10:38;96508.66;;;-2.83;56.35
24892;BME280;12954;50.688;10.908;2023-03-01T08:13:07;96508.19;;;-2.87;57.00
24892;BME280;12954;50.688;10.908;2023-03-01T08:15:36;96510.03;;;-2.96;57.09
24892;BME280;12954;50.688;10.908;2023-03-01T08:18:05;96508.47;;;-2.82;56.75
24892;BME280;12954;50.688;10.908;2023-03-01T08:20:34;96500.59;;;-2.90;57.13
24892;BME280;12954;50.688;10.908;2023-03-01T08:23:02;96502.56;;;-2.84;57.11
24892;BME280;12954;50.688;10.908;2023-03-01T08:25:31;96481.84;;;-2.95;56.71
24892;BME280;12954;50.688;10.908;2023-03-01T08:27:59;96493.41;;;-2.73;56.50
24892;BME280;12954;50.688;10.908;2023-03-01T08:30:27;96491.59;;;-2.73;56.87
24892;BME280;12954;50.688;10.908;2023-03-01T08:32:56;96485.38;;;-2.80;56.78
24892;BME280;12954;50.688;10.908;2023-03-01T08:35:26;96494.16;;;-2.65;57.12
24892;BME280;12954;50.688;10.908;2023-03-01T08:37:54;96480.69;;;-2.70;57.06
24892;BME280;12954;50.688;10.908;2023-03-01T08:40:23;96488.66;;;-2.55;57.12
24892;BME280;12954;50.688;10.908;2023-03-01T08:42:51;96494.44;;;-2.52;56.65
24892;BME280;12954;50.688;10.908;2023-03-01T08:45:19;96485.97;;;-2.47;56.89
24892;BME280;12954;50.688;10.908;2023-03-01T08:47:52;96478.00;;;-2.39;56.58
24892;BME280;12954;50.688;10.908;2023-03-01T08:50:20;96482.94;;;-2.36;57.07
24892;BME280;12954;50.688;10.908;2023-03-01T08:52:52;96492.94;;;-2.32;56.58
24892;BME280;12954;50.688;10.908;2023-03-01T08:55:20;96387.56;;;-2.87;56.92
24892;BME280;12954;50.688;10.908;2023-03-01T08:57:49;96476.66;;;-2.20;56.33
24892;BME280;12954;50.688;10.908;2023-03-01T09:00:18;96461.16;;;-2.23;56.52
24892;BME280;12954;50.688;10.908;2023-03-01T09:02:47;96433.91;;;-2.39;56.41
24892;BME280;12954;50.688;10.908;2023-03-01T09:05:15;96467.22;;;-2.00;56.52
24892;BME280;12954;50.688;10.908;2023-03-01T09:07:46;96437.22;;;-2.22;56.10
24892;BME280;12954;50.688;10.908;2023-03-01T09:10:16;96481.84;;;-1.90;55.93
24892;BME280;12954;50.688;10.908;2023-03-01T09:12:44;96474.44;;;-1.94;55.82
24892;BME280;12954;50.688;10.908;2023-03-01T09:15:12;96473.09;;;-1.90;55.98
24892;BME280;12954;50.688;10.908;2023-03-01T09:17:41;96471.38;;;-1.83;55.77
24892;BME280;12954;50.688;10.908;2023-03-01T09:20:10;96462.63;;;-1.84;55.63
24892;BME280;12954;50.688;10.908;2023-03-01T09:22:39;96461.06;;;-1.78;56.13
24892;BME280;12954;50.688;10.908;2023-03-01T09:25:07;96442.09;;;-1.82;55.59
24892;BME280;12954;50.688;10.908;2023-03-01T09:27:37;96443.84;;;-1.74;55.44
24892;BME280;12954;50.688;10.908;2023-03-01T09:30:07;96452.50;;;-1.65;55.51
24892;BME280;12954;50.688;10.908;2023-03-01T09:32:36;96439.19;;;-1.72;55.36
24892;BME280;12954;50.688;10.908;2023-03-01T09:35:09;96444.75;;;-1.67;55.67
24892;BME280;12954;50.688;10.908;2023-03-01T09:37:38;96438.09;;;-1.63;55.96
24892;BME280;12954;50.688;10.908;2023-03-01T09:40:09;96441.00;;;-1.58;55.96
24892;BME280;12954;50.688;10.908;2023-03-01T09:42:51;96431.25;;;-1.57;55.35
24892;BME280;12954;50.688;10.908;2023-03-01T09:45:27;96433.53;;;-1.40;55.32
24892;BME280;12954;50.688;10.908;2023-03-01T09:47:56;96379.59;;;-1.53;54.39
24892;BME280;12954;50.688;10.908;2023-03-01T09:50:26;96429.47;;;-1.36;54.79
24892;BME280;12954;50.688;10.908;2023-03-01T09:53:02;96436.06;;;-1.32;54.81
24892;BME280;12954;50.688;10.908;2023-03-01T09:55:40;96437.34;;;-1.28;54.34
24892;BME280;12954;50.688;10.908;2023-03-01T09:58:35;96416.41;;;-1.23;54.16
24892;BME280;12954;50.688;10.908;2023-03-01T10:01:20;96425.28;;;-1.15;54.31
24892;BME280;12954;50.688;10.908;2023-03-01T10:04:02;96406.91;;;-1.17;54.32
24892;BME280;12954;50.688;10.908;2023-03-01T10:06:33;96426.59;;;-1.05;54.30
24892;BME280;12954;50.688;10.908;2023-03-01T10:09:05;96369.94;;;-1.10;53.20
24892;BME280;12954;50.688;10.908;2023-03-01T10:11:37;96420.38;;;-0.76;53.29
24892;BME280;12954;50.688;10.908;2023-03-01T10:14:17;96419.53;;;-0.83;53.00
24892;BME280;12954;50.688;10.908;2023-03-01T10:16:51;96408.31;;;-1.00;53.08
24892;BME280;12954;50.688;10.908;2023-03-01T10:19:22;96424.31;;;-0.72;52.83
24892;BME280;12954;50.688;10.908;2023-03-01T10:21:51;96407.44;;;-1.07;53.11
24892;BME280;12954;50.688;10.908;2023-03-01T10:24:20;96411.91;;;-0.72;52.28
24892;BME280;12954;50.688;10.908;2023-03-01T10:26:54;96418.31;;;-0.81;53.13
24892;BME280;12954;50.688;10.908;2023-03-01T10:29:30;96417.88;;;-0.84;53.16
24892;BME280;12954;50.688;10.908;2023-03-01T10:31:59;96357.31;;;-1.08;53.24
24892;BME280;12954;50.688;10.908;2023-03-01T10:34:30;96382.31;;;-0.75;53.40
24892;BME280;12954;50.688;10.908;2023-03-01T10:37:08;96407.38;;;-0.29;51.14
24892;BME280;12954;50.688;10.908;2023-03-01T10:39:37;96414.66;;;-0.37;51.12
24892;BME280;12954;50.688;10.908;2023-03-01T10:42:26;96407.25;;;-0.42;51.74
24892;BME280;12954;50.688;10.908;2023-03-01T10:44:57;96404.22;;;-0.39;51.18
24892;BME280;12954;50.688;10.908;2023-03-01T10:47:27;96385.94;;;-0.34;51.26
24892;BME280;12954;50.688;10.908;2023-03-01T10:49:59;96398.28;;;-0.20;50.26
24892;BME280;12954;50.688;10.908;2023-03-01T10:52:33;96399.53;;;-0.16;49.84
24892;BME280;12954;50.688;10.908;2023-03-01T10:55:23;96392.03;;;-0.06;49.01
24892;BME280;12954;50.688;10.908;2023-03-01T10:58:06;96405.63;;;-0.15;50.37
24892;BME280;12954;50.688;10.908;2023-03-01T11:00:47;96400.50;;;0.05;49.58
24892;BME280;12954;50.688;10.908;2023-03-01T11:03:19;96399.50;;;0.12;49.54
24892;BME280;12954;50.688;10.908;2023-03-01T11:06:01;96393.09;;;0.28;49.45
24892;BME280;12954;50.688;10.908;2023-03-01T11:08:35;96381.03;;;0.32;49.06
24892;BME280;12954;50.688;10.908;2023-03-01T11:11:17;96389.44;;;0.35;49.03
24892;BME280;12954;50.688;10.908;2023-03-01T11:13:55;96381.66;;;0.27;49.14
24892;BME280;12954;50.688;10.908;2023-03-01T11:16:31;96386.66;;;0.50;47.99
24892;BME280;12954;50.688;10.908;2023-03-01T11:19:13;96385.75;;;0.30;49.34
24892;BME280;12954;50.688;10.908;2023-03-01T11:21:50;96386.66;;;0.50;49.18
24892;BME280;12954;50.688;10.908;2023-03-01T11:24:23;96384.22;;;0.55;49.33
24892;BME280;12954;50.688;10.908;2023-03-01T11:26:55;96383.94;;;0.78;49.31
24892;BME280;12954;50.688;10.908;2023-03-01T11:29:29;96384.34;;;0.81;49.53
24892;BME280;12954;50.688;10.908;2023-03-01T11:32:15;96377.81;;;0.90;49.17
24892;BME280;12954;50.688;10.908;2023-03-01T11:34:48;96350.22;;;0.78;49.20
24892;BME280;12954;50.688;10.908;2023-03-01T11:37:26;96363.75;;;0.96;49.67
24892;BME280;12954;50.688;10.908;2023-03-01T11:40:05;96377.31;;;1.28;48.94
24892;BME280;12954;50.688;10.908;2023-03-01T11:42:45;96374.41;;;1.23;48.63
24892;BME280;12954;50.688;10.908;2023-03-01T11:45:16;96345.78;;;1.05;48.84
24892;BME280;12954;50.688;10.908;2023-03-01T11:48:03;96356.88;;;1.35;48.79
24892;BME280;12954;50.688;10.908;2023-03-01T11:50:40;96359.13;;;1.31;49.06
24892;BME280;12954;50.688;10.908;2023-03-01T11:53:22;96355.84;;;1.36;49.38
24892;BME280;12954;50.688;10.908;2023-03-01T11:56:02;96365.66;;;1.55;48.44
24892;BME280;12954;50.688;10.908;2023-03-01T11:58:50;96353.81;;;1.51;48.93
24892;BME280;12954;50.688;10.908;2023-03-01T12:01:32;96352.19;;;1.63;48.89
24892;BME280;12954;50.688;10.908;2023-03-01T12:04:30;96347.69;;;1.83;48.16
24892;BME280;12954;50.688;10.908;2023-03-01T12:07:06;96347.28;;;1.93;46.57
24892;BME280;12954;50.688;10.908;2023-03-01T12:09:50;96338.28;;;1.74;46.65
24892;BME280;12954;50.688;10.908;2023-03-01T12:12:30;96320.88;;;1.58;46.89
24892;BME280;12954;50.688;10.908;2023-03-01T12:15:22;96340.72;;;1.82;45.71
24892;BME280;12954;50.688;10.908;2023-03-01T12:18:15;96339.06;;;1.55;46.28
24892;BME280;12954;50.688;10.908;2023-03-01T12:20:58;96322.53;;;1.40;47.25
24892;BME280;12954;50.688;10.908;2023-03-01T12:23:45;96327.63;;;1.61;47.48
24892;BME280;12954;50.688;10.908;2023-03-01T12:26:23;96340.72;;;1.69;48.12
24892;BME280;12954;50.688;10.908;2023-03-01T12:29:12;96337.03;;;1.96;47.68
24892;BME280;12954;50.688;10.908;2023-03-01T12:32:04;96310.03;;;1.93;46.71
24892;BME280;12954;50.688;10.908;2023-03-01T12:35:03;96334.59;;;2.01;46.43
24892;BME280;12954;50.688;10.908;2023-03-01T12:37:49;96329.69;;;1.85;46.97
24892;BME280;12954;50.688;10.908;2023-03-01T12:40:35;96322.31;;;1.87;47.06
24892;BME280;12954;50.688;10.908;2023-03-01T12:43:28;96328.44;;;2.01;47.21
24892;BME280;12954;50.688;10.908;2023-03-01T12:46:14;96330.91;;;1.96;46.79
24892;BME280;12954;50.688;10.908;2023-03-01T12:48:51;96238.06;;;1.29;47.05
24892;BME280;12954;50.688;10.908;2023-03-01T12:51:26;96320.69;;;1.86;47.17
24892;BME280;12954;50.688;10.908;2023-03-01T12:54:01;96309.38;;;1.84;47.28
24892;BME280;12954;50.688;10.908;2023-03-01T12:56:35;96314.13;;;1.89;47.14
24892;BME280;12954;50.688;10.908;2023-03-01T12:59:09;96312.50;;;1.94;47.26
24892;BME280;12954;50.688;10.908;2023-03-01T13:01:46;96304.09;;;1.97;46.69
24892;BME280;12954;50.688;10.908;2023-03-01T13:04:35;96263.81;;;1.68;47.11
24892;BME280;12954;50.688;10.908;2023-03-01T13:07:21;96300.63;;;1.90;47.39
24892;BME280;12954;50.688;10.908;2023-03-01T13:09:59;96307.56;;;1.91;47.44
24892;BME280;12954;50.688;10.908;2023-03-01T13:12:45;96299.41;;;1.86;47.31
24892;BME280;12954;50.688;10.908;2023-03-01T13:15:27;96308.00;;;1.88;47.65
24892;BME280;12954;50.688;10.908;2023-03-01T13:17:57;96278.50;;;1.83;47.41
24892;BME280;12954;50.688;10.908;2023-03-01T13:20:32;96297.75;;;1.85;47.87